createdAt,value
2018-09-10T00:02:24.324Z,99.90
2018-09-10T00:04:53.698Z,99.90
2018-09-10T00:07:23.121Z,99.90
2018-09-10T00:09:53.484Z,99.90
2018-09-10T00:12:23.489Z,99.90
2018-09-10T00:14:53.471Z,99.90
2018-09-10T00:17:23.560Z,99.90
2018-09-10T00:19:52.644Z,99.90
2018-09-10T00:22:22.346Z,99.90
2018-09-10T00:24:51.573Z,99.90
2018-09-10T00:27:21.362Z,99.90
2018-09-10T00:29:51.203Z,99.90
2018-09-10T00:32:21.103Z,99.90
2018-09-10T00:34:50.901Z,99.90
2018-09-10T00:37:20.797Z,99.90
2018-09-10T00:39:50.419Z,99.90
2018-09-10T00:42:20.479Z,99.90
2018-09-10T00:44:49.988Z,99.90
2018-09-10T00:47:19.995Z,99.90
2018-09-10T00:49:50.251Z,99.90
2018-09-10T00:52:20.376Z,99.90
2018-09-10T00:54:50.166Z,99.90
2018-09-10T00:57:20.036Z,99.90
2018-09-10T00:59:49.935Z,99.90
2018-09-10T01:02:20.927Z,99.90
2018-09-10T01:04:50.709Z,99.90
2018-09-10T01:07:20.542Z,99.90
2018-09-10T01:09:50.383Z,99.90
2018-09-10T01:12:19.790Z,99.90
2018-09-10T01:14:49.578Z,99.90
2018-09-10T01:17:20.145Z,99.90
2018-09-10T01:19:49.852Z,99.90
2018-09-10T01:22:19.810Z,99.90
2018-09-10T01:24:50.122Z,99.90
2018-09-10T01:27:19.983Z,99.90
2018-09-10T01:29:50.491Z,99.90
2018-09-10T01:32:20.321Z,99.90
2018-09-10T01:34:55.624Z,99.90
2018-09-10T01:37:26.376Z,99.90
2018-09-10T01:39:56.584Z,99.90
2018-09-10T01:42:27.962Z,99.90
2018-09-10T01:44:59.207Z,99.90
2018-09-10T01:47:29.855Z,99.90
2018-09-10T01:52:52.306Z,99.90
2018-09-10T01:55:22.629Z,99.90
2018-09-10T01:57:53.256Z,99.90
2018-09-10T02:00:22.788Z,99.90
2018-09-10T02:02:52.568Z,99.90
2018-09-10T02:05:22.328Z,99.90
2018-09-10T02:07:52.478Z,99.90
2018-09-10T02:10:23.063Z,99.90
2018-09-10T02:12:52.907Z,99.90
2018-09-10T02:15:22.663Z,99.90
2018-09-10T02:17:52.600Z,99.90
2018-09-10T02:20:22.078Z,99.90
2018-09-10T02:22:51.308Z,99.90
2018-09-10T02:28:08.205Z,99.90
2018-09-10T02:30:38.404Z,99.90
2018-09-10T02:33:09.730Z,99.90
2018-09-10T02:35:39.538Z,99.90
2018-09-10T02:38:09.658Z,99.90
2018-09-10T02:43:39.749Z,99.90
2018-09-10T02:46:09.379Z,99.90
2018-09-10T02:48:39.617Z,99.90
2018-09-10T02:51:09.813Z,99.90
2018-09-10T02:53:38.959Z,99.90
2018-09-10T02:56:08.618Z,99.90
2018-09-10T02:58:38.928Z,99.90
2018-09-10T03:01:08.770Z,99.90
2018-09-10T03:03:38.421Z,99.90
2018-09-10T03:06:08.115Z,99.90
2018-09-10T03:08:38.407Z,99.90
2018-09-10T03:11:08.516Z,99.90
2018-09-10T03:13:38.429Z,99.90
2018-09-10T03:16:07.752Z,99.90
2018-09-10T03:18:36.889Z,99.90
2018-09-10T03:21:06.579Z,99.90
2018-09-10T03:23:36.832Z,99.90
2018-09-10T03:26:06.044Z,99.90
2018-09-10T03:28:35.264Z,99.90
2018-09-10T03:31:04.704Z,99.90
2018-09-10T03:33:35.375Z,99.90
2018-09-10T03:36:05.139Z,99.90
2018-09-10T03:38:34.587Z,99.90
2018-09-10T03:41:04.501Z,99.90
2018-09-10T03:43:35.297Z,99.90
2018-09-10T03:46:04.924Z,99.90
2018-09-10T03:48:34.664Z,99.90
2018-09-10T03:51:04.448Z,99.90
2018-09-10T03:53:35.025Z,99.90
2018-09-10T03:56:05.715Z,99.90
2018-09-10T03:58:36.039Z,99.90
2018-09-10T04:01:06.075Z,99.90
2018-09-10T04:03:35.430Z,99.90
2018-09-10T04:06:05.011Z,99.90
2018-09-10T04:08:36.677Z,99.90
2018-09-10T04:11:06.805Z,99.90
2018-09-10T04:13:35.523Z,99.90
2018-09-10T04:16:05.346Z,99.90
2018-09-10T04:18:35.738Z,99.90
2018-09-10T04:21:05.996Z,99.90
2018-09-10T04:23:35.258Z,99.90
2018-09-10T04:26:04.837Z,99.90
2018-09-10T04:28:35.163Z,99.90
2018-09-10T04:31:05.095Z,99.90
2018-09-10T04:33:34.738Z,99.90
2018-09-10T04:36:05.082Z,99.90
2018-09-10T04:38:35.428Z,99.90
2018-09-10T04:41:05.496Z,99.90
2018-09-10T04:43:35.779Z,99.90
2018-09-10T04:46:05.902Z,99.90
2018-09-10T04:48:35.381Z,99.90
2018-09-10T04:51:04.340Z,99.90
2018-09-10T04:53:33.391Z,99.90
2018-09-10T04:56:02.349Z,99.90
2018-09-10T04:58:31.351Z,99.90
2018-09-10T05:01:00.944Z,99.90
2018-09-10T05:03:30.327Z,99.90
2018-09-10T05:05:59.233Z,99.90
2018-09-10T05:08:28.873Z,99.90
2018-09-10T05:10:57.966Z,99.90
2018-09-10T05:16:25.189Z,99.90
2018-09-10T05:18:54.830Z,99.90
2018-09-10T05:21:24.964Z,99.90
2018-09-10T05:23:54.236Z,99.90
2018-09-10T05:26:24.602Z,99.90
2018-09-10T05:28:54.366Z,99.90
2018-09-10T05:31:24.514Z,99.90
2018-09-10T05:33:54.480Z,99.90
2018-09-10T05:36:24.262Z,99.90
2018-09-10T05:38:53.828Z,99.90
2018-09-10T05:41:24.107Z,99.90
2018-09-10T05:43:53.477Z,99.90
2018-09-10T05:46:23.042Z,99.90
2018-09-10T05:48:52.798Z,99.90
2018-09-10T05:51:23.109Z,99.90
2018-09-10T05:53:53.088Z,99.90
2018-09-10T05:56:22.719Z,99.90
2018-09-10T05:58:51.775Z,99.90
2018-09-10T06:01:21.535Z,99.90
2018-09-10T06:03:51.211Z,99.90
2018-09-10T06:06:20.728Z,99.90
2018-09-10T06:08:50.733Z,99.90
2018-09-10T06:11:20.298Z,99.90
2018-09-10T06:13:49.916Z,99.90
2018-09-10T06:16:18.928Z,99.90
2018-09-10T06:18:48.123Z,99.90
2018-09-10T06:21:17.676Z,99.90
2018-09-10T06:23:47.225Z,99.90
2018-09-10T06:26:17.047Z,99.90
2018-09-10T06:28:47.235Z,99.90
2018-09-10T06:31:16.532Z,99.90
2018-09-10T06:33:45.852Z,99.90
2018-09-10T06:36:15.826Z,99.90
2018-09-10T06:38:45.749Z,99.90
2018-09-10T06:41:15.426Z,99.90
2018-09-10T06:43:44.815Z,99.90
2018-09-10T06:46:13.996Z,99.90
2018-09-10T06:48:44.494Z,99.90
2018-09-10T06:51:14.139Z,99.90
2018-09-10T06:53:44.058Z,99.90
2018-09-10T06:56:13.148Z,99.90
2018-09-10T06:58:43.682Z,99.90
2018-09-10T07:01:14.351Z,99.90
2018-09-10T07:03:44.219Z,99.90
2018-09-10T07:06:14.147Z,99.90
2018-09-10T07:08:44.553Z,99.90
2018-09-10T07:11:15.517Z,99.90
2018-09-10T07:13:45.820Z,99.90
2018-09-10T07:16:15.516Z,99.90
2018-09-10T07:18:44.911Z,99.90
2018-09-10T07:21:14.461Z,99.90
2018-09-10T07:23:44.826Z,99.90
2018-09-10T07:26:14.750Z,99.90
2018-09-10T07:28:44.316Z,99.90
2018-09-10T07:31:14.231Z,99.90
2018-09-10T07:33:43.290Z,99.90
2018-09-10T07:36:13.354Z,99.90
2018-09-10T07:38:42.890Z,99.90
2018-09-10T07:41:12.668Z,99.90
2018-09-10T07:43:42.246Z,99.90
2018-09-10T07:46:11.808Z,99.90
2018-09-10T07:48:40.410Z,99.90
2018-09-10T07:51:10.237Z,99.90
2018-09-10T07:59:20.028Z,99.50
2018-09-10T08:01:49.796Z,99.20
2018-09-10T08:04:18.627Z,97.60
2018-09-10T08:06:47.997Z,96.30
2018-09-10T08:09:18.107Z,95.90
2018-09-10T08:11:48.430Z,95.00
2018-09-10T08:14:18.163Z,93.30
2018-09-10T08:16:48.059Z,91.20
2018-09-10T08:19:17.137Z,88.00
2018-09-10T08:21:46.691Z,86.50
2018-09-10T08:24:16.730Z,84.70
2018-09-10T08:26:49.450Z,83.10
2018-09-10T08:29:18.855Z,81.50
2018-09-10T08:31:48.697Z,79.00
2018-09-10T08:34:18.210Z,77.30
2018-09-10T08:36:49.058Z,76.70
2018-09-10T08:39:19.210Z,75.70
2018-09-10T08:41:49.320Z,74.20
2018-09-10T08:44:19.409Z,73.70
2018-09-10T08:46:48.929Z,73.30
2018-09-10T08:49:18.178Z,72.00
2018-09-10T08:51:47.923Z,68.10
2018-09-10T08:54:17.325Z,67.60
2018-09-10T08:56:47.428Z,66.40
2018-09-10T08:59:16.831Z,64.80
2018-09-10T09:01:47.234Z,63.10
2018-09-10T09:04:17.497Z,62.40
2018-09-10T09:06:47.765Z,62.70
2018-09-10T09:09:17.667Z,62.00
2018-09-10T09:11:47.510Z,62.80
2018-09-10T09:14:17.553Z,61.40
2018-09-10T09:16:47.220Z,60.60
2018-09-10T09:19:16.498Z,60.10
2018-09-10T09:21:45.916Z,59.50
2018-09-10T09:24:16.384Z,59.30
2018-09-10T09:26:46.133Z,58.90
2018-09-10T09:29:15.813Z,58.80
2018-09-10T09:31:45.594Z,58.30
2018-09-10T09:34:15.122Z,57.50
2018-09-10T09:36:50.178Z,58.00
2018-09-10T09:39:25.052Z,57.00
2018-09-10T09:41:59.952Z,57.30
2018-09-10T09:44:34.420Z,57.30
2018-09-10T09:47:04.342Z,57.40
2018-09-10T09:49:33.939Z,57.40
2018-09-10T09:52:03.579Z,57.40
2018-09-10T09:54:33.372Z,57.00
2018-09-10T09:57:03.017Z,56.50
2018-09-10T09:59:32.177Z,56.30
2018-09-10T10:02:07.206Z,56.50
2018-09-10T10:04:36.626Z,56.20
2018-09-10T10:07:06.428Z,56.80
2018-09-10T10:09:36.385Z,56.60
2018-09-10T10:12:05.885Z,56.20
2018-09-10T10:14:35.697Z,56.20
2018-09-10T10:17:05.522Z,56.60
2018-09-10T10:19:35.381Z,56.80
2018-09-10T10:22:05.343Z,56.30
2018-09-10T10:24:35.616Z,55.40
2018-09-10T10:27:05.173Z,55.60
2018-09-10T10:29:34.687Z,56.10
2018-09-10T10:32:04.634Z,56.70
2018-09-10T10:34:34.218Z,56.10
2018-09-10T10:37:04.793Z,56.10
2018-09-10T10:39:33.894Z,56.00
2018-09-10T10:42:03.989Z,56.10
2018-09-10T10:44:33.863Z,56.30
2018-09-10T10:47:04.273Z,56.50
2018-09-10T10:49:34.036Z,56.50
2018-09-10T10:52:04.012Z,55.10
2018-09-10T10:54:33.634Z,54.70
2018-09-10T10:57:02.763Z,54.40
2018-09-10T10:59:32.291Z,54.20
2018-09-10T11:02:02.353Z,53.10
2018-09-10T11:04:31.701Z,52.00
2018-09-10T11:07:01.371Z,51.00
2018-09-10T11:09:30.799Z,50.70
2018-09-10T11:11:59.404Z,50.00
2018-09-10T11:14:29.135Z,49.60
2018-09-10T11:16:58.194Z,48.70
2018-09-10T11:19:28.366Z,48.10
2018-09-10T11:21:59.029Z,47.40
2018-09-10T11:24:28.717Z,47.80
2018-09-10T11:26:58.795Z,47.50
2018-09-10T11:29:28.992Z,47.80
2018-09-10T11:31:58.778Z,48.80
2018-09-10T11:34:28.652Z,47.90
2018-09-10T11:36:57.974Z,47.70
2018-09-10T11:39:27.958Z,48.30
2018-09-10T11:41:57.766Z,47.80
2018-09-10T11:44:27.586Z,50.60
2018-09-10T11:46:58.011Z,47.20
2018-09-10T11:49:27.625Z,47.00
2018-09-10T11:51:57.412Z,46.50
2018-09-10T11:54:26.383Z,46.90
2018-09-10T11:56:56.081Z,46.70
2018-09-10T11:59:26.731Z,47.00
2018-09-10T12:01:56.555Z,46.40
2018-09-10T12:04:26.351Z,46.30
2018-09-10T12:06:55.996Z,45.60
2018-09-10T12:09:25.505Z,45.30
2018-09-10T12:11:55.362Z,45.70
2018-09-10T12:14:25.714Z,45.80
2018-09-10T12:16:55.609Z,45.40
2018-09-10T12:19:24.827Z,45.40
2018-09-10T12:21:54.420Z,44.90
2018-09-10T12:24:24.083Z,44.50
2018-09-10T12:26:54.039Z,44.30
2018-09-10T12:29:23.806Z,44.00
2018-09-10T12:31:53.020Z,44.10
2018-09-10T12:34:38.483Z,44.00
2018-09-10T12:37:23.591Z,43.40
2018-09-10T12:39:53.660Z,43.60
2018-09-10T12:42:23.494Z,43.10
2018-09-10T12:44:54.425Z,42.70
2018-09-10T12:47:23.239Z,42.00
2018-09-10T12:49:52.291Z,42.40
2018-09-10T12:52:20.969Z,43.20
2018-09-10T12:54:50.068Z,43.00
2018-09-10T12:57:19.297Z,41.80
2018-09-10T12:59:48.697Z,41.80
2018-09-10T13:02:19.127Z,41.70
2018-09-10T13:04:48.880Z,41.20
2018-09-10T13:07:18.205Z,40.60
2018-09-10T13:09:47.364Z,40.60
2018-09-10T13:12:16.648Z,39.90
2018-09-10T13:14:46.122Z,40.30
2018-09-10T13:17:15.812Z,40.60
2018-09-10T13:19:45.426Z,41.10
2018-09-10T13:22:14.757Z,41.30
2018-09-10T13:24:43.708Z,41.40
2018-09-10T13:27:14.306Z,41.60
2018-09-10T13:29:43.660Z,41.60
2018-09-10T13:32:13.324Z,42.20
2018-09-10T13:34:42.427Z,42.00
2018-09-10T13:37:11.928Z,42.20
2018-09-10T13:39:41.221Z,42.70
2018-09-10T13:42:11.495Z,43.00
2018-09-10T13:44:41.241Z,43.90
2018-09-10T13:47:11.906Z,43.70
2018-09-10T13:49:41.209Z,43.70
2018-09-10T13:52:11.897Z,44.10
2018-09-10T13:54:41.536Z,44.60
2018-09-10T13:57:11.466Z,44.80
2018-09-10T13:59:41.414Z,45.10
2018-09-10T14:02:10.871Z,45.40
2018-09-10T14:04:41.508Z,45.90
2018-09-10T14:07:11.951Z,46.30
2018-09-10T14:09:42.896Z,47.10
2018-09-10T14:12:13.317Z,46.30
2018-09-10T14:14:45.326Z,46.60
2018-09-10T14:17:15.243Z,46.60
2018-09-10T14:19:44.745Z,46.70
2018-09-10T14:22:16.917Z,46.80
2018-09-10T14:24:46.604Z,46.30
2018-09-10T14:27:17.773Z,46.20
2018-09-10T14:29:48.578Z,46.40
2018-09-10T14:32:18.958Z,46.40
2018-09-10T14:34:48.860Z,46.20
2018-09-10T14:37:18.769Z,46.20
2018-09-10T14:39:48.883Z,46.60
2018-09-10T14:42:18.268Z,46.80
2018-09-10T14:44:48.437Z,46.80
2018-09-10T14:47:18.511Z,46.80
2018-09-10T14:49:48.218Z,46.80
2018-09-10T14:52:18.455Z,46.70
2018-09-10T14:54:49.384Z,46.70
2018-09-10T14:57:19.422Z,46.50
2018-09-10T14:59:49.305Z,46.70
2018-09-10T15:02:18.778Z,46.70
2018-09-10T15:04:48.624Z,46.80
2018-09-10T15:07:18.418Z,46.90
2018-09-10T15:09:47.994Z,47.20
2018-09-10T15:12:18.316Z,47.30
2018-09-10T15:14:48.649Z,47.70
2018-09-10T15:17:19.195Z,48.10
2018-09-10T15:19:49.290Z,48.30
2018-09-10T15:22:19.170Z,48.30
2018-09-10T15:24:49.403Z,48.90
2018-09-10T15:27:19.465Z,48.50
2018-09-10T15:29:49.000Z,48.50
2018-09-10T15:32:19.622Z,48.90
2018-09-10T15:34:49.525Z,49.20
2018-09-10T15:37:19.975Z,49.20
2018-09-10T15:39:49.858Z,49.10
2018-09-10T15:42:20.111Z,49.30
2018-09-10T15:44:50.430Z,49.60
2018-09-10T15:47:20.752Z,50.00
2018-09-10T15:49:50.893Z,50.20
2018-09-10T15:52:21.035Z,50.60
2018-09-10T15:54:50.926Z,50.80
2018-09-10T15:57:20.781Z,51.10
2018-09-10T15:59:50.399Z,51.60
2018-09-10T16:02:20.158Z,51.70
2018-09-10T16:04:50.183Z,51.70
2018-09-10T16:07:19.976Z,51.90
2018-09-10T16:09:50.224Z,52.30
2018-09-10T16:12:20.156Z,52.50
2018-09-10T16:14:49.620Z,52.80
2018-09-10T16:17:19.640Z,52.90
2018-09-10T16:19:50.096Z,53.30
2018-09-10T16:22:20.660Z,54.00
2018-09-10T16:24:50.421Z,54.40
2018-09-10T16:27:21.219Z,54.70
2018-09-10T16:29:51.658Z,54.80
2018-09-10T16:32:21.277Z,54.90
2018-09-10T16:34:51.487Z,54.80
2018-09-10T16:37:22.449Z,54.90
2018-09-10T16:39:52.344Z,55.10
2018-09-10T16:42:21.869Z,55.10
2018-09-10T16:44:52.495Z,55.50
2018-09-10T16:47:22.204Z,55.80
2018-09-10T16:49:52.244Z,56.10
2018-09-10T16:52:23.202Z,56.40
2018-09-10T16:54:53.604Z,56.80
2018-09-10T16:57:23.372Z,56.90
2018-09-10T16:59:53.164Z,57.10
2018-09-10T17:02:23.423Z,57.40
2018-09-10T17:04:53.695Z,57.80
2018-09-10T17:07:22.906Z,57.60
2018-09-10T17:09:52.544Z,57.80
2018-09-10T17:12:22.471Z,58.10
2018-09-10T17:14:53.353Z,58.50
2018-09-10T17:17:23.246Z,58.70
2018-09-10T17:19:54.159Z,59.00
2018-09-10T17:22:24.215Z,59.20
2018-09-10T17:24:55.142Z,59.30
2018-09-10T17:27:26.040Z,59.60
2018-09-10T17:29:57.182Z,59.80
2018-09-10T17:32:27.022Z,60.00
2018-09-10T17:34:56.010Z,60.00
2018-09-10T17:37:26.204Z,60.10
2018-09-10T17:39:57.216Z,60.30
2018-09-10T17:42:26.547Z,60.70
2018-09-10T17:44:55.864Z,60.90
2018-09-10T17:47:25.702Z,61.10
2018-09-10T17:49:54.148Z,61.50
2018-09-10T17:57:50.164Z,63.40
2018-09-10T18:00:19.332Z,63.70
2018-09-10T18:02:49.428Z,64.40
2018-09-10T18:05:19.213Z,64.70
2018-09-10T18:07:49.034Z,64.80
2018-09-10T18:10:18.114Z,64.80
2018-09-10T18:12:48.513Z,64.90
2018-09-10T18:15:18.823Z,64.90
2018-09-10T18:17:48.397Z,64.90
2018-09-10T18:20:17.703Z,64.80
2018-09-10T18:22:47.372Z,64.80
2018-09-10T18:25:16.891Z,64.90
2018-09-10T18:30:30.906Z,65.30
2018-09-10T18:32:59.216Z,65.60
2018-09-10T18:35:27.652Z,66.10
2018-09-10T18:37:56.632Z,66.10
2018-09-10T18:40:25.720Z,66.40
2018-09-10T18:42:54.812Z,66.20
2018-09-10T18:45:23.166Z,65.90
2018-09-10T18:47:51.152Z,65.60
2018-09-10T18:50:20.428Z,65.50
2018-09-10T18:52:49.194Z,65.30
2018-09-10T18:55:18.088Z,65.00
2018-09-10T19:00:33.525Z,65.40
2018-09-10T19:03:03.748Z,64.20
2018-09-10T19:05:33.310Z,64.00
2018-09-10T19:08:04.808Z,63.90
2018-09-10T19:10:34.161Z,63.70
2018-09-10T19:13:04.410Z,63.50
2018-09-10T19:15:33.338Z,63.40
2018-09-10T19:18:01.767Z,63.40
2018-09-10T19:20:31.042Z,63.30
2018-09-10T19:22:59.252Z,63.30
2018-09-10T19:25:27.539Z,63.30
2018-09-10T19:27:57.800Z,64.10
2018-09-10T19:30:27.261Z,63.30
2018-09-10T19:32:56.359Z,63.30
2018-09-10T19:35:25.422Z,63.20
2018-09-10T19:37:54.088Z,63.30
2018-09-10T19:40:23.805Z,63.30
2018-09-10T19:42:52.344Z,63.40
2018-09-10T19:45:20.980Z,63.70
2018-09-10T19:47:50.902Z,63.70
2018-09-10T19:50:23.579Z,64.00
2018-09-10T19:52:54.476Z,64.40
2018-09-10T19:55:23.921Z,65.30
2018-09-10T19:57:53.857Z,64.40
2018-09-10T20:00:22.218Z,64.70
2018-09-10T20:02:51.266Z,64.90
2018-09-10T20:05:19.551Z,65.10
2018-09-10T20:07:47.902Z,65.10
2018-09-10T20:10:16.640Z,65.20
2018-09-10T20:12:45.294Z,65.60
2018-09-10T20:15:13.496Z,66.10
2018-09-10T20:17:42.581Z,66.40
2018-09-10T20:20:12.830Z,66.60
2018-09-10T20:22:41.848Z,67.00
2018-09-10T20:25:11.153Z,67.40
2018-09-10T20:27:39.691Z,67.50
2018-09-10T20:30:12.696Z,67.60
2018-09-10T20:32:41.710Z,67.70
2018-09-10T20:35:10.865Z,68.40
2018-09-10T20:37:39.973Z,67.90
2018-09-10T20:40:09.673Z,68.00
2018-09-10T20:42:44.197Z,68.10
2018-09-10T20:45:13.440Z,68.30
2018-09-10T20:47:42.774Z,68.50
2018-09-10T20:50:11.984Z,68.70
2018-09-10T20:52:41.379Z,69.00
2018-09-10T20:55:10.518Z,69.30
2018-09-10T20:57:40.545Z,69.50
2018-09-10T21:00:10.170Z,70.50
2018-09-10T21:02:40.117Z,69.90
2018-09-10T21:05:09.269Z,70.20
2018-09-10T21:13:09.780Z,70.70
2018-09-10T21:15:40.117Z,70.70
2018-09-10T21:18:10.130Z,70.50
2018-09-10T21:20:39.244Z,70.20
2018-09-10T21:23:08.420Z,70.00
2018-09-10T21:25:38.153Z,69.80
2018-09-10T21:28:07.072Z,69.80
2018-09-10T21:30:35.945Z,69.70
2018-09-10T21:33:05.002Z,69.70
2018-09-10T21:35:33.805Z,70.10
2018-09-10T21:38:02.997Z,69.90
2018-09-10T21:40:31.589Z,70.20
2018-09-10T21:43:00.583Z,70.40
2018-09-10T21:45:29.650Z,70.70
2018-09-10T21:47:58.806Z,71.00
2018-09-10T21:50:28.200Z,71.70
2018-09-10T21:52:57.407Z,71.70
2018-09-10T21:55:26.436Z,71.80
2018-09-10T21:57:55.305Z,72.10
2018-09-10T22:00:24.263Z,72.30
2018-09-10T22:02:53.401Z,73.00
2018-09-10T22:05:22.320Z,73.50
2018-09-10T22:07:51.284Z,73.30
2018-09-10T22:10:20.798Z,74.10
2018-09-10T22:12:49.694Z,73.40
2018-09-10T22:15:18.476Z,73.60
2018-09-10T22:17:47.204Z,73.80
2018-09-10T22:20:15.835Z,74.00
2018-09-10T22:22:45.020Z,74.30
2018-09-10T22:25:13.681Z,74.70
2018-09-10T22:27:42.683Z,74.80
2018-09-10T22:30:11.513Z,75.00
2018-09-10T22:32:40.409Z,75.10
2018-09-10T22:35:09.119Z,75.30
2018-09-10T22:37:37.540Z,75.40
2018-09-10T22:40:06.925Z,75.40
2018-09-10T22:42:35.661Z,75.70
2018-09-10T22:45:04.419Z,76.30
2018-09-10T22:47:33.315Z,76.00
2018-09-10T22:50:02.642Z,76.30
2018-09-10T22:52:31.637Z,76.60
2018-09-10T22:55:01.238Z,76.70
2018-09-10T22:57:30.012Z,77.10
2018-09-10T22:59:59.633Z,77.30
2018-09-10T23:02:28.818Z,77.60
2018-09-10T23:04:57.548Z,78.00
2018-09-10T23:07:26.532Z,78.40
2018-09-10T23:09:55.952Z,78.80
2018-09-10T23:12:24.130Z,79.00
2018-09-10T23:14:53.431Z,79.30
2018-09-10T23:17:22.742Z,79.70
2018-09-10T23:19:52.068Z,80.10
2018-09-10T23:22:20.978Z,80.70
2018-09-10T23:24:49.796Z,80.90
2018-09-10T23:27:19.345Z,82.30
2018-09-10T23:29:47.330Z,81.80
2018-09-10T23:32:16.130Z,82.20
2018-09-10T23:34:44.968Z,82.70
2018-09-10T23:37:13.862Z,82.90
2018-09-10T23:42:28.330Z,84.20
2018-09-10T23:44:58.049Z,83.50
2018-09-10T23:47:26.755Z,83.60
2018-09-10T23:49:56.222Z,83.80
2018-09-10T23:52:25.138Z,84.10
2018-09-10T23:54:54.137Z,84.20
2018-09-10T23:57:23.063Z,84.60
2018-09-10T23:59:51.988Z,84.90
